»·PEaware :: N292MC P52-E68

N292MC :: P52-E68

FLIGHT INFORMATION

Flight Status: Arrived
Operator: Privately registered:
United States
More flights under this callsign
Pilot: Maurice C. (12314)
Aircraft: Unknown
(KODI)
More flights by this aircraft type
Origin: P52 Cottonwood
United States
Destination: E68 Estrella Sailport
United States
More flights between these airports :: More routes between these airports
Route: VPCCD VPGPP VPPIR
File this flight plan on PilotEdge
Remarks: ALPHABET CHALLENGE
Altitude:
(Current/Filed)
5,500ft
Speed:
(Current/Filed)
180kts
Departed: 27-Oct-20 01:28 PM
Arrived: 27-Oct-20 02:10 PM
Distance/Time
Traveled:
99nm/0:42
Distance/Time
To Go:
Arrived

Flight Plot

Page will automatically refresh every two minutes.

Flight plan parsing failed; only flown route is shown


Map Options




Map Legend


Flown Route
Filed Route
Departure Airport
Arrival Airport
Navaid (VOR, NDB)
Fix

Horizontal Profiles

Position Reports

Time Latitude Longitude Heading Altitude Ground
Speed
27-Oct-20 13:14 34.732668 -112.037870 59 3544ft 0kts
27-Oct-20 13:15 34.732668 -112.037870 59 3544ft 0kts
27-Oct-20 13:16 34.732668 -112.037870 59 3544ft 0kts
27-Oct-20 13:17 34.732668 -112.037870 59 3544ft 0kts
27-Oct-20 13:18 34.732668 -112.037870 59 3544ft 0kts
27-Oct-20 13:19 34.732668 -112.037870 59 3544ft 0kts
27-Oct-20 13:20 34.732668 -112.037870 59 3544ft 0kts
27-Oct-20 13:21 34.732668 -112.037870 59 3544ft 0kts
27-Oct-20 13:22 34.732668 -112.037870 59 3544ft 0kts
27-Oct-20 13:23 34.732591 -112.037654 157 3544ft 6kts
27-Oct-20 13:24 34.732861 -112.037266 157 3542ft 17kts
27-Oct-20 13:25 34.726246 -112.033629 154 3561ft 25kts
27-Oct-20 13:26 34.725176 -112.032468 343 3563ft 25kts
27-Oct-20 13:27 34.745926 -112.037233 20 4268ft 109kts
27-Oct-20 13:28 34.740866 -111.998764 147 5089ft 155kts
27-Oct-20 13:29 34.698738 -111.987251 186 6102ft 159kts
27-Oct-20 13:30 34.655672 -111.999839 190 7065ft 160kts
27-Oct-20 13:31 34.609971 -112.006007 182 7512ft 179kts
27-Oct-20 13:32 34.559375 -112.011968 184 7508ft 183kts
27-Oct-20 13:33 34.508752 -112.016514 183 7502ft 184kts
27-Oct-20 13:34 34.457722 -112.022426 183 7496ft 184kts
27-Oct-20 13:35 34.406701 -112.028428 182 7491ft 184kts
27-Oct-20 13:36 34.355620 -112.034255 183 7487ft 184kts
27-Oct-20 13:37 34.304707 -112.040190 183 7484ft 184kts
27-Oct-20 13:38 34.253741 -112.046110 183 7478ft 184kts
27-Oct-20 13:39 34.202791 -112.052003 183 7475ft 184kts
27-Oct-20 13:40 34.151631 -112.057907 183 7423ft 186kts
27-Oct-20 13:41 34.098276 -112.061006 177 6863ft 195kts
27-Oct-20 13:42 34.043851 -112.059711 175 6259ft 196kts
27-Oct-20 13:43 33.989534 -112.056680 175 5682ft 195kts
27-Oct-20 13:44 33.936213 -112.053313 175 5412ft 185kts
27-Oct-20 13:45 33.885560 -112.049806 174 5479ft 179kts
27-Oct-20 13:46 33.835274 -112.046257 174 5461ft 182kts
27-Oct-20 13:47 33.784336 -112.043114 175 5459ft 183kts
27-Oct-20 13:48 33.733093 -112.039957 177 5310ft 189kts
27-Oct-20 13:49 33.692740 -112.078061 232 4718ft 197kts
27-Oct-20 13:50 33.651885 -112.119882 219 4437ft 186kts
27-Oct-20 13:51 33.610975 -112.160318 220 4015ft 194kts
27-Oct-20 13:52 33.569075 -112.201638 220 3543ft 194kts
27-Oct-20 13:53 33.526220 -112.240333 226 3106ft 192kts
27-Oct-20 13:54 33.491965 -112.287515 217 3034ft 185kts
27-Oct-20 13:55 33.442646 -112.300873 174 3076ft 184kts
27-Oct-20 13:56 33.393136 -112.288572 162 3294ft 177kts
27-Oct-20 13:57 33.345543 -112.272113 162 3478ft 183kts
27-Oct-20 13:58 33.300338 -112.246430 134 3475ft 180kts
27-Oct-20 13:59 33.263713 -112.205439 134 3469ft 180kts
27-Oct-20 14:00 33.227163 -112.164533 134 3494ft 180kts
27-Oct-20 14:01 33.191694 -112.125013 133 3446ft 136kts
27-Oct-20 14:02 33.168158 -112.105200 172 3010ft 110kts
27-Oct-20 14:03 33.141697 -112.106215 204 2490ft 98kts
27-Oct-20 14:04 33.117243 -112.116414 173 2405ft 98kts
27-Oct-20 14:05 33.092078 -112.111982 156 1730ft 90kts
27-Oct-20 14:06 33.074487 -112.127531 266 1964ft 95kts
27-Oct-20 14:07 33.070807 -112.158520 271 1876ft 89kts
27-Oct-20 14:08 33.082862 -112.171497 72 1446ft 86kts
27-Oct-20 14:09 33.085274 -112.161201 77 1275ft 4kts
27-Oct-20 14:10 33.085038 -112.160891 296 1274ft 0kts
27-Oct-20 14:11 33.085038 -112.160891 296 1274ft 0kts
27-Oct-20 14:12 33.085038 -112.160891 296 1274ft 0kts
27-Oct-20 14:13 33.085038 -112.160891 296 1274ft 0kts

Navigation Log

Ident Type
Flight plan parsing failed, navigation log unavailable